Time;durP1;ratioP1;P1;durP2;ratioP2;P2;SDS_P1;SDS_P2;PMS_P1;PMS_P2;Temp;Humidity;BMP_temperature;BMP_pressure;BME280_temperature;BME280_humidity;BME280_pressure;Samples;Min_cycle;Max_cycle;Signal;HPM_P1;HPM_P2
2022/07/17 00:01:39;;;;;;;3.60;2.60;;;;;;;;;;5144820;27;20199;-69
2022/07/17 00:04:05;;;;;;;4.35;3.10;;;;;;;;;;5144650;27;20226;-69
2022/07/17 00:06:31;;;;;;;3.67;3.25;;;;;;;;;;5144208;27;20222;-69
2022/07/17 00:08:59;;;;;;;3.45;3.20;;;;;;;;;;5144545;27;20494;-69
2022/07/17 00:11:26;;;;;;;4.13;3.33;;;;;;;;;;5144497;27;20194;-69
2022/07/17 00:13:53;;;;;;;3.75;3.55;;;;;;;;;;5144208;27;20200;-69
2022/07/17 00:16:19;;;;;;;4.47;3.72;;;;;;;;;;5144226;27;20200;-69
2022/07/17 00:18:45;;;;;;;3.80;3.50;;;;;;;;;;5144446;27;20194;-69
2022/07/17 00:21:11;;;;;;;3.45;3.10;;;;;;;;;;5144656;27;20194;-69
2022/07/17 00:23:39;;;;;;;3.80;3.50;;;;;;;;;;5143616;27;20214;-69
2022/07/17 00:26:06;;;;;;;3.63;3.40;;;;;;;;;;5143876;27;20233;-69
2022/07/17 00:28:33;;;;;;;3.20;3.10;;;;;;;;;;5144054;27;20198;-69
2022/07/17 00:30:59;;;;;;;4.43;2.90;;;;;;;;;;5143971;27;20231;-69
2022/07/17 00:33:25;;;;;;;2.85;2.60;;;;;;;;;;5143885;27;20186;-69
2022/07/17 00:35:51;;;;;;;3.53;2.72;;;;;;;;;;5143873;27;20202;-69
2022/07/17 00:38:18;;;;;;;3.22;3.00;;;;;;;;;;5143830;27;20422;-69
2022/07/17 00:40:45;;;;;;;2.70;2.60;;;;;;;;;;5143929;27;20247;-69
2022/07/17 00:43:12;;;;;;;3.00;2.83;;;;;;;;;;5143798;27;20206;-69
2022/07/17 00:45:38;;;;;;;3.08;2.85;;;;;;;;;;5143806;27;20222;-69
2022/07/17 00:48:06;;;;;;;3.95;3.13;;;;;;;;;;5143793;27;20198;-69
2022/07/17 00:50:33;;;;;;;2.97;2.75;;;;;;;;;;5143889;27;20194;-69
2022/07/17 00:52:59;;;;;;;3.42;3.22;;;;;;;;;;5143761;27;20202;-69
2022/07/17 00:55:25;;;;;;;3.20;3.00;;;;;;;;;;5143703;27;20235;-69
2022/07/17 00:57:54;;;;;;;3.88;3.58;;;;;;;;;;5143287;27;20203;-69
2022/07/17 01:00:22;;;;;;;3.95;3.55;;;;;;;;;;5143774;27;20198;-69
2022/07/17 01:02:49;;;;;;;3.53;3.22;;;;;;;;;;5143692;27;20239;-69
2022/07/17 01:05:15;;;;;;;3.60;3.30;;;;;;;;;;5143394;27;20224;-69
2022/07/17 01:07:42;;;;;;;3.53;3.20;;;;;;;;;;5143301;27;20209;-69
2022/07/17 01:10:08;;;;;;;3.28;3.08;;;;;;;;;;5143403;27;20202;-69
2022/07/17 01:12:35;;;;;;;3.25;3.05;;;;;;;;;;5143461;27;20194;-69
2022/07/17 01:15:01;;;;;;;3.17;2.92;;;;;;;;;;5143602;27;20194;-69
2022/07/17 01:17:29;;;;;;;3.22;2.97;;;;;;;;;;5143285;27;20363;-69
2022/07/17 01:19:55;;;;;;;3.17;3.08;;;;;;;;;;5143491;27;20202;-69
2022/07/17 01:22:23;;;;;;;5.38;3.33;;;;;;;;;;5143475;27;20247;-69
2022/07/17 01:24:49;;;;;;;2.92;2.83;;;;;;;;;;5142751;27;20574;-69
2022/07/17 01:27:16;;;;;;;4.35;2.95;;;;;;;;;;5143043;27;20239;-69
2022/07/17 01:29:42;;;;;;;2.83;2.63;;;;;;;;;;5143340;27;20231;-69
2022/07/17 01:32:08;;;;;;;3.00;2.80;;;;;;;;;;5151831;27;20213;-69
2022/07/17 01:34:35;;;;;;;5.75;3.15;;;;;;;;;;5148495;27;20210;-69
2022/07/17 01:37:01;;;;;;;2.92;2.83;;;;;;;;;;5156096;27;20206;-69
2022/07/17 01:42:09;;;;;;;3.38;3.17;;;;;;;;;;5141156;27;20394;-69
2022/07/17 01:44:35;;;;;;;2.97;2.78;;;;;;;;;;5140950;27;20226;-69
2022/07/17 01:47:01;;;;;;;2.80;2.60;;;;;;;;;;5141094;27;20382;-69
2022/07/17 01:49:27;;;;;;;3.53;3.28;;;;;;;;;;5148241;27;20266;-68
2022/07/17 01:51:54;;;;;;;2.90;2.70;;;;;;;;;;5149632;27;20206;-68
2022/07/17 01:54:20;;;;;;;2.90;2.80;;;;;;;;;;5141890;27;20202;-68
2022/07/17 01:56:48;;;;;;;6.03;3.50;;;;;;;;;;5163927;27;20518;-69
2022/07/17 01:59:14;;;;;;;3.15;2.80;;;;;;;;;;5167785;27;20570;-69
2022/07/17 02:01:40;;;;;;;3.45;3.20;;;;;;;;;;5167605;27;20423;-69
2022/07/17 02:04:06;;;;;;;3.95;3.00;;;;;;;;;;5168068;27;20421;-69
2022/07/17 02:06:32;;;;;;;3.95;3.45;;;;;;;;;;5167588;27;20540;-69
2022/07/17 02:08:59;;;;;;;5.65;3.25;;;;;;;;;;5167590;27;20231;-69
2022/07/17 02:11:25;;;;;;;4.93;3.70;;;;;;;;;;5167511;27;20194;-69
2022/07/17 02:13:53;;;;;;;5.95;3.00;;;;;;;;;;5167584;27;20193;-69
2022/07/17 02:16:19;;;;;;;3.85;3.00;;;;;;;;;;5167349;27;20193;-69
2022/07/17 02:18:45;;;;;;;3.67;3.47;;;;;;;;;;5167541;27;20505;-69
2022/07/17 02:21:11;;;;;;;3.80;3.50;;;;;;;;;;5167558;27;20358;-69
2022/07/17 02:23:38;;;;;;;3.85;3.50;;;;;;;;;;5167429;27;20194;-69
2022/07/17 02:26:04;;;;;;;3.70;3.50;;;;;;;;;;5167000;27;20217;-69
2022/07/17 02:28:30;;;;;;;3.75;3.42;;;;;;;;;;5167308;27;20231;-69
2022/07/17 02:30:58;;;;;;;3.20;2.95;;;;;;;;;;5167188;27;20240;-69
2022/07/17 02:33:24;;;;;;;3.58;3.28;;;;;;;;;;5167118;27;20194;-69
2022/07/17 02:35:50;;;;;;;3.20;3.10;;;;;;;;;;5167143;27;20189;-69
2022/07/17 02:38:16;;;;;;;3.30;3.10;;;;;;;;;;5166947;27;20194;-69
2022/07/17 02:40:43;;;;;;;4.13;3.05;;;;;;;;;;5166994;27;20238;-69
2022/07/17 02:43:09;;;;;;;4.38;3.35;;;;;;;;;;5166932;27;20553;-69
2022/07/17 02:45:35;;;;;;;3.00;2.80;;;;;;;;;;5167029;27;20270;-69
2022/07/17 02:48:03;;;;;;;3.45;3.15;;;;;;;;;;5166053;27;20194;-69
2022/07/17 02:50:29;;;;;;;3.30;3.10;;;;;;;;;;5167003;27;20429;-69
2022/07/17 02:52:55;;;;;;;3.70;3.50;;;;;;;;;;5166864;27;20505;-69
2022/07/17 02:55:22;;;;;;;3.33;3.13;;;;;;;;;;5166765;27;20198;-69
2022/07/17 02:57:48;;;;;;;3.03;2.90;;;;;;;;;;5166353;27;20225;-69
2022/07/17 03:00:16;;;;;;;2.70;2.60;;;;;;;;;;5166865;27;20213;-69
2022/07/17 03:02:43;;;;;;;5.72;3.22;;;;;;;;;;5166921;27;20194;-69
2022/07/17 03:05:11;;;;;;;2.85;2.65;;;;;;;;;;5166317;27;20262;-69
2022/07/17 03:07:37;;;;;;;2.50;2.40;;;;;;;;;;5166092;27;20202;-69
2022/07/17 03:10:04;;;;;;;2.35;2.25;;;;;;;;;;5166419;27;20197;-69
2022/07/17 03:12:30;;;;;;;2.83;2.72;;;;;;;;;;5166307;27;20243;-69
2022/07/17 03:14:57;;;;;;;2.30;2.20;;;;;;;;;;5166690;27;20193;-69
2022/07/17 03:17:23;;;;;;;2.72;2.53;;;;;;;;;;5166191;27;20197;-69
2022/07/17 03:19:49;;;;;;;2.80;2.55;;;;;;;;;;5166321;27;20230;-69
2022/07/17 03:22:17;;;;;;;2.72;2.53;;;;;;;;;;5166274;27;20193;-69
2022/07/17 03:24:43;;;;;;;2.78;2.58;;;;;;;;;;5166099;27;20346;-69
2022/07/17 03:27:09;;;;;;;3.35;2.97;;;;;;;;;;5165827;27;20198;-69
2022/07/17 03:29:35;;;;;;;2.55;2.45;;;;;;;;;;5166202;27;20198;-69
2022/07/17 03:32:02;;;;;;;2.92;2.72;;;;;;;;;;5166283;27;20197;-69
2022/07/17 03:34:28;;;;;;;5.13;3.00;;;;;;;;;;5165890;27;20193;-69
2022/07/17 03:36:54;;;;;;;2.95;2.75;;;;;;;;;;5166210;27;20229;-69
2022/07/17 03:39:22;;;;;;;4.10;3.30;;;;;;;;;;5165770;27;20435;-69
2022/07/17 03:41:48;;;;;;;3.15;2.95;;;;;;;;;;5166210;27;20205;-69
2022/07/17 03:44:14;;;;;;;4.10;2.90;;;;;;;;;;5165689;27;20229;-69
2022/07/17 03:46:40;;;;;;;4.63;3.40;;;;;;;;;;5165301;27;20217;-69
2022/07/17 03:49:07;;;;;;;4.57;3.00;;;;;;;;;;5165810;27;20552;-69
2022/07/17 03:51:33;;;;;;;3.22;2.92;;;;;;;;;;5165594;27;20258;-69
2022/07/17 03:53:59;;;;;;;3.05;2.90;;;;;;;;;;5165476;27;20193;-69
2022/07/17 03:56:27;;;;;;;3.00;2.90;;;;;;;;;;5165255;27;20197;-69
2022/07/17 03:58:53;;;;;;;3.05;2.78;;;;;;;;;;5164418;27;20185;-69
2022/07/17 04:01:19;;;;;;;3.50;3.30;;;;;;;;;;5165559;27;20230;-69
2022/07/17 04:03:46;;;;;;;4.97;3.70;;;;;;;;;;5165465;27;20197;-69
2022/07/17 04:06:12;;;;;;;5.35;3.45;;;;;;;;;;5164831;27;20217;-69
2022/07/17 04:08:38;;;;;;;3.70;3.45;;;;;;;;;;5165202;27;20423;-69
2022/07/17 04:11:05;;;;;;;4.18;3.78;;;;;;;;;;5165375;27;20422;-69
2022/07/17 04:13:33;;;;;;;4.75;3.47;;;;;;;;;;5165371;27;20393;-69
2022/07/17 04:16:00;;;;;;;3.50;3.10;;;;;;;;;;5164769;27;20239;-67
2022/07/17 04:18:27;;;;;;;4.53;3.35;;;;;;;;;;5165103;27;20273;-67
2022/07/17 04:20:55;;;;;;;3.33;2.95;;;;;;;;;;5165017;27;20231;-67
2022/07/17 04:23:21;;;;;;;3.47;3.25;;;;;;;;;;5164822;27;20230;-67
2022/07/17 04:25:48;;;;;;;3.50;3.30;;;;;;;;;;5165012;27;20278;-67
2022/07/17 04:28:14;;;;;;;3.28;2.95;;;;;;;;;;5164863;27;20247;-67
2022/07/17 04:30:42;;;;;;;3.28;3.08;;;;;;;;;;5164969;27;20200;-67
2022/07/17 04:33:08;;;;;;;3.28;3.08;;;;;;;;;;5164888;27;20194;-67
2022/07/17 04:35:35;;;;;;;3.67;3.47;;;;;;;;;;5164823;27;20250;-67
2022/07/17 04:38:02;;;;;;;3.72;3.42;;;;;;;;;;5164423;27;20242;-67
2022/07/17 04:40:28;;;;;;;3.60;3.30;;;;;;;;;;5164649;27;20194;-67
2022/07/17 04:42:54;;;;;;;4.82;3.72;;;;;;;;;;5164848;27;20493;-67
2022/07/17 04:45:21;;;;;;;3.38;3.17;;;;;;;;;;5164715;27;20390;-67
2022/07/17 04:47:48;;;;;;;3.80;3.50;;;;;;;;;;5164462;27;20384;-67
2022/07/17 04:50:14;;;;;;;6.95;3.75;;;;;;;;;;5164528;27;20194;-67
2022/07/17 04:52:41;;;;;;;4.10;3.70;;;;;;;;;;5164490;27;20200;-67
2022/07/17 04:55:07;;;;;;;4.70;3.30;;;;;;;;;;5164718;27;20361;-67
2022/07/17 04:57:34;;;;;;;3.75;3.53;;;;;;;;;;5164398;27;20239;-67
2022/07/17 05:00:00;;;;;;;4.05;3.70;;;;;;;;;;5164429;27;20197;-67
2022/07/17 05:02:26;;;;;;;3.15;3.05;;;;;;;;;;5164373;27;20194;-67
2022/07/17 05:04:54;;;;;;;4.00;3.65;;;;;;;;;;5164004;27;20218;-67
2022/07/17 05:07:20;;;;;;;3.63;3.42;;;;;;;;;;5164253;27;20212;-67
2022/07/17 05:09:46;;;;;;;3.10;3.00;;;;;;;;;;5164287;27;20197;-67
2022/07/17 05:12:12;;;;;;;8.07;3.80;;;;;;;;;;5164179;27;20230;-67
2022/07/17 05:14:39;;;;;;;3.63;3.42;;;;;;;;;;5164270;27;20194;-67
2022/07/17 05:17:05;;;;;;;3.78;3.35;;;;;;;;;;5164025;27;20190;-67
2022/07/17 05:19:31;;;;;;;4.20;3.90;;;;;;;;;;5164074;27;20193;-67
2022/07/17 05:21:59;;;;;;;4.20;3.88;;;;;;;;;;5164218;27;20194;-67
2022/07/17 05:24:25;;;;;;;3.95;3.65;;;;;;;;;;5163974;27;20193;-67
2022/07/17 05:26:51;;;;;;;4.82;3.75;;;;;;;;;;5163610;27;20217;-67
2022/07/17 05:29:18;;;;;;;3.83;3.38;;;;;;;;;;5163930;27;20215;-67
2022/07/17 05:31:44;;;;;;;4.15;3.85;;;;;;;;;;5163992;27;20240;-67
2022/07/17 05:34:10;;;;;;;4.35;4.05;;;;;;;;;;5163986;27;20194;-67
2022/07/17 05:36:36;;;;;;;4.32;3.95;;;;;;;;;;5163655;27;20190;-67
2022/07/17 05:39:04;;;;;;;4.55;4.00;;;;;;;;;;5164178;27;20235;-67
2022/07/17 05:41:30;;;;;;;5.90;5.25;;;;;;;;;;5164045;27;20198;-67
2022/07/17 05:43:57;;;;;;;5.43;4.63;;;;;;;;;;5164012;27;20524;-67
2022/07/17 05:46:23;;;;;;;4.88;4.45;;;;;;;;;;5163568;27;20540;-67
2022/07/17 05:48:49;;;;;;;6.85;4.18;;;;;;;;;;5163701;27;20438;-67
2022/07/17 05:51:15;;;;;;;4.20;3.90;;;;;;;;;;5163939;27;20424;-67
2022/07/17 05:53:42;;;;;;;5.10;4.70;;;;;;;;;;5163991;27;20419;-67
2022/07/17 05:56:09;;;;;;;4.75;4.30;;;;;;;;;;5163686;27;20222;-67
2022/07/17 05:58:35;;;;;;;4.25;3.95;;;;;;;;;;5163749;27;20194;-67
2022/07/17 06:01:02;;;;;;;4.45;4.20;;;;;;;;;;5163577;27;20227;-67
2022/07/17 06:03:29;;;;;;;4.07;3.80;;;;;;;;;;5163982;27;20239;-67
2022/07/17 06:05:56;;;;;;;5.15;4.65;;;;;;;;;;5163794;27;20222;-67
2022/07/17 06:08:22;;;;;;;4.07;3.88;;;;;;;;;;5163981;27;20193;-68
2022/07/17 06:10:48;;;;;;;4.13;3.80;;;;;;;;;;5163750;27;20230;-67
2022/07/17 06:13:16;;;;;;;5.97;3.90;;;;;;;;;;5163613;27;20234;-68
2022/07/17 06:15:42;;;;;;;5.70;4.10;;;;;;;;;;5163613;27;20507;-68
2022/07/17 06:18:09;;;;;;;6.32;4.90;;;;;;;;;;5163184;27;20213;-67
2022/07/17 06:20:35;;;;;;;4.90;4.30;;;;;;;;;;5163937;27;20261;-67
2022/07/17 06:23:01;;;;;;;4.00;3.60;;;;;;;;;;5165702;27;20230;-67
2022/07/17 06:25:27;;;;;;;4.00;3.65;;;;;;;;;;5167417;27;20198;-68
2022/07/17 06:27:54;;;;;;;4.18;3.40;;;;;;;;;;5166976;27;20247;-67
2022/07/17 06:30:21;;;;;;;6.75;4.65;;;;;;;;;;5167108;27;20546;-68
2022/07/17 06:32:47;;;;;;;5.07;4.18;;;;;;;;;;5167578;27;20198;-68
2022/07/17 06:35:14;;;;;;;3.80;3.47;;;;;;;;;;5167267;27;20494;-68
2022/07/17 06:37:40;;;;;;;4.15;3.50;;;;;;;;;;5167046;27;20506;-68
2022/07/17 06:40:07;;;;;;;4.70;4.30;;;;;;;;;;5167050;27;20238;-69
2022/07/17 06:42:33;;;;;;;3.63;3.28;;;;;;;;;;5167526;27;20194;-68
2022/07/17 06:44:59;;;;;;;3.80;3.50;;;;;;;;;;5166985;27;20194;-68
2022/07/17 06:47:27;;;;;;;3.90;3.45;;;;;;;;;;5166771;27;20221;-68
2022/07/17 06:49:53;;;;;;;3.95;3.30;;;;;;;;;;5167001;27;20194;-69
2022/07/17 06:52:19;;;;;;;3.53;3.33;;;;;;;;;;5166854;27;20238;-68
2022/07/17 06:54:45;;;;;;;3.08;2.90;;;;;;;;;;5166823;27;20366;-67
2022/07/17 06:57:12;;;;;;;4.55;3.45;;;;;;;;;;5166614;27;20435;-66
2022/07/17 06:59:39;;;;;;;3.53;3.30;;;;;;;;;;5166511;27;20263;-66
2022/07/17 07:02:05;;;;;;;3.38;3.08;;;;;;;;;;5166773;27;20193;-67
2022/07/17 07:04:33;;;;;;;5.15;2.83;;;;;;;;;;5166417;27;20212;-67
2022/07/17 07:06:59;;;;;;;3.03;2.80;;;;;;;;;;5166243;27;20226;-60
2022/07/17 07:09:25;;;;;;;4.72;3.40;;;;;;;;;;5166506;27;20198;-61
2022/07/17 07:11:52;;;;;;;2.88;2.78;;;;;;;;;;5166413;27;20215;-61
2022/07/17 07:14:18;;;;;;;3.95;2.58;;;;;;;;;;5166258;27;20205;-61
2022/07/17 07:16:44;;;;;;;4.15;3.00;;;;;;;;;;5166070;27;20238;-60
2022/07/17 07:19:10;;;;;;;3.00;2.70;;;;;;;;;;5166682;27;20498;-59
2022/07/17 07:21:38;;;;;;;4.68;3.35;;;;;;;;;;5166510;27;20538;-60
2022/07/17 07:24:05;;;;;;;3.20;3.00;;;;;;;;;;5166183;27;20421;-60
2022/07/17 07:26:31;;;;;;;7.75;2.78;;;;;;;;;;5165687;27;20221;-62
2022/07/17 07:28:58;;;;;;;3.20;2.70;;;;;;;;;;5166257;27;20562;-62
2022/07/17 07:31:24;;;;;;;3.75;2.92;;;;;;;;;;5166129;27;20516;-62
2022/07/17 07:33:50;;;;;;;3.25;2.78;;;;;;;;;;5165814;27;20464;-61
2022/07/17 07:36:16;;;;;;;3.13;2.90;;;;;;;;;;5165589;27;20243;-62
2022/07/17 07:38:45;;;;;;;2.88;2.78;;;;;;;;;;5165793;27;20194;-62
2022/07/17 07:41:11;;;;;;;2.83;2.63;;;;;;;;;;5165714;27;20264;-62
2022/07/17 07:43:37;;;;;;;3.13;2.90;;;;;;;;;;5165766;27;20198;-62
2022/07/17 07:46:04;;;;;;;4.22;3.00;;;;;;;;;;5165860;27;20535;-62
2022/07/17 07:48:30;;;;;;;2.42;2.33;;;;;;;;;;5165685;27;20194;-62
2022/07/17 07:50:56;;;;;;;3.22;3.10;;;;;;;;;;5165658;27;20197;-62
2022/07/17 07:53:22;;;;;;;2.85;2.70;;;;;;;;;;5165584;27;20194;-62
2022/07/17 07:55:50;;;;;;;2.80;2.45;;;;;;;;;;5165368;27;20201;-59
2022/07/17 07:58:16;;;;;;;3.22;2.88;;;;;;;;;;5165285;27;20193;-59
2022/07/17 08:00:44;;;;;;;5.68;2.50;;;;;;;;;;5165562;27;20229;-59
2022/07/17 08:03:10;;;;;;;2.75;2.65;;;;;;;;;;5165527;27;20194;-59
2022/07/17 08:05:36;;;;;;;2.55;2.40;;;;;;;;;;5165383;27;20213;-60
2022/07/17 08:08:03;;;;;;;3.13;2.60;;;;;;;;;;5164868;27;20281;-58
2022/07/17 08:10:29;;;;;;;2.95;2.38;;;;;;;;;;5165104;27;20193;-59
2022/07/17 08:12:57;;;;;;;3.00;2.20;;;;;;;;;;5165330;27;20217;-61
2022/07/17 08:15:23;;;;;;;2.53;2.40;;;;;;;;;;5165170;27;20239;-61
2022/07/17 08:17:50;;;;;;;2.35;2.15;;;;;;;;;;5164861;27;20418;-61
2022/07/17 08:20:17;;;;;;;3.55;2.22;;;;;;;;;;5165125;27;20367;-61
2022/07/17 08:22:44;;;;;;;2.35;2.20;;;;;;;;;;5165342;27;20197;-61
2022/07/17 08:25:10;;;;;;;3.13;1.98;;;;;;;;;;5164903;27;20231;-61
2022/07/17 08:27:37;;;;;;;2.10;2.00;;;;;;;;;;5164762;27;20223;-61
2022/07/17 08:30:06;;;;;;;3.30;2.33;;;;;;;;;;5165196;27;20217;-61
2022/07/17 08:32:32;;;;;;;2.22;1.92;;;;;;;;;;5164779;27;20497;-60
2022/07/17 08:34:59;;;;;;;3.75;2.10;;;;;;;;;;5164846;27;20238;-60
2022/07/17 08:37:25;;;;;;;2.00;1.90;;;;;;;;;;5164299;27;20211;-60
2022/07/17 08:39:51;;;;;;;1.48;1.48;;;;;;;;;;5165133;27;20197;-61
2022/07/17 08:42:17;;;;;;;5.43;2.20;;;;;;;;;;5164747;27;20193;-61
2022/07/17 08:44:44;;;;;;;4.10;2.67;;;;;;;;;;5164182;27;20205;-61
2022/07/17 08:47:12;;;;;;;2.08;1.90;;;;;;;;;;5164253;27;20209;-61
2022/07/17 08:49:41;;;;;;;3.08;1.95;;;;;;;;;;5164502;27;20193;-61
2022/07/17 08:52:07;;;;;;;2.08;1.98;;;;;;;;;;5164278;27;20422;-61
2022/07/17 08:54:34;;;;;;;6.18;1.95;;;;;;;;;;5164548;27;20501;-61
2022/07/17 08:57:00;;;;;;;1.63;1.52;;;;;;;;;;5164519;27;20231;-61
2022/07/17 08:59:26;;;;;;;2.08;1.98;;;;;;;;;;5164642;27;20238;-61
2022/07/17 09:01:53;;;;;;;2.17;1.77;;;;;;;;;;5164386;27;20197;-61
2022/07/17 09:04:20;;;;;;;3.15;1.60;;;;;;;;;;5164286;27;20196;-61
2022/07/17 09:06:47;;;;;;;2.15;1.50;;;;;;;;;;5163983;27;20229;-61
2022/07/17 09:09:14;;;;;;;3.45;1.67;;;;;;;;;;5164556;27;20194;-61
2022/07/17 09:11:45;;;;;;;3.85;1.60;;;;;;;;;;5164407;27;20197;-61
2022/07/17 09:14:11;;;;;;;2.03;1.65;;;;;;;;;;5164293;27;20288;-61
2022/07/17 09:16:48;;;;;;;2.50;2.40;;;;;;;;;;5163926;27;20189;-61
2022/07/17 09:19:24;;;;;;;2.15;2.05;;;;;;;;;;5164031;27;20274;-62
2022/07/17 09:21:51;;;;;;;1.58;1.20;;;;;;;;;;5164276;27;20505;-61
2022/07/17 09:24:17;;;;;;;5.15;1.60;;;;;;;;;;5163990;27;20193;-62
2022/07/17 09:26:45;;;;;;;1.95;1.85;;;;;;;;;;5163660;27;20221;-61
2022/07/17 09:29:12;;;;;;;3.65;1.10;;;;;;;;;;5164041;27;20547;-61
2022/07/17 09:31:39;;;;;;;1.40;1.30;;;;;;;;;;5163865;27;20201;-61
2022/07/17 09:34:05;;;;;;;1.05;1.05;;;;;;;;;;5164205;27;20201;-61
2022/07/17 09:36:31;;;;;;;4.30;1.45;;;;;;;;;;5163639;27;20189;-61
2022/07/17 09:38:59;;;;;;;1.60;1.50;;;;;;;;;;5163898;27;20193;-61
2022/07/17 09:41:26;;;;;;;3.45;2.10;;;;;;;;;;5163873;27;20192;-61
2022/07/17 09:43:53;;;;;;;2.28;1.52;;;;;;;;;;5163832;27;20211;-62
2022/07/17 09:46:20;;;;;;;2.47;2.38;;;;;;;;;;5163530;27;20200;-62
2022/07/17 09:48:48;;;;;;;1.85;1.75;;;;;;;;;;5164092;27;20268;-62
2022/07/17 09:51:22;;;;;;;1.70;1.60;;;;;;;;;;5163909;27;20201;-61
2022/07/17 09:53:49;;;;;;;1.77;1.20;;;;;;;;;;5163850;27;20196;-61
2022/07/17 09:56:17;;;;;;;1.08;1.08;;;;;;;;;;5163510;27;20237;-61
2022/07/17 09:58:45;;;;;;;1.02;0.98;;;;;;;;;;5166908;27;20193;-61
2022/07/17 10:01:12;;;;;;;1.73;0.90;;;;;;;;;;5167928;27;20438;-61
2022/07/17 10:03:38;;;;;;;3.70;1.10;;;;;;;;;;5167865;27;20193;-61
2022/07/17 10:06:05;;;;;;;1.05;1.02;;;;;;;;;;5167466;27;20250;-61
2022/07/17 10:08:31;;;;;;;1.58;1.23;;;;;;;;;;5167648;27;20253;-61
2022/07/17 10:10:58;;;;;;;1.15;1.10;;;;;;;;;;5167541;27;20546;-61
2022/07/17 10:13:26;;;;;;;3.03;1.17;;;;;;;;;;5167410;27;20214;-62
2022/07/17 10:15:53;;;;;;;1.40;0.90;;;;;;;;;;5167531;27;20197;-61
2022/07/17 10:18:21;;;;;;;1.25;1.15;;;;;;;;;;5167255;27;20189;-62
2022/07/17 10:20:47;;;;;;;1.00;1.00;;;;;;;;;;5167685;27;20416;-62
2022/07/17 10:23:14;;;;;;;1.23;1.13;;;;;;;;;;5167374;27;20194;-62
2022/07/17 10:25:41;;;;;;;2.72;0.90;;;;;;;;;;5167183;27;20234;-61
2022/07/17 10:28:07;;;;;;;2.85;1.00;;;;;;;;;;5167084;27;20258;-61
2022/07/17 10:30:35;;;;;;;1.10;1.10;;;;;;;;;;5167239;27;20508;-61
2022/07/17 10:33:05;;;;;;;1.05;1.00;;;;;;;;;;5167263;27;20193;-61
2022/07/17 10:35:41;;;;;;;1.20;1.10;;;;;;;;;;5167111;27;20197;-62
2022/07/17 10:38:10;;;;;;;0.93;0.93;;;;;;;;;;5166787;27;20196;-61
2022/07/17 10:40:37;;;;;;;3.92;1.20;;;;;;;;;;5166815;27;20197;-61
2022/07/17 10:43:04;;;;;;;1.20;1.20;;;;;;;;;;5167081;27;20556;-61
2022/07/17 10:45:33;;;;;;;1.30;1.30;;;;;;;;;;5166994;27;20197;-62
2022/07/17 10:48:02;;;;;;;1.40;1.20;;;;;;;;;;5166705;27;20209;-62
2022/07/17 10:50:29;;;;;;;2.47;1.02;;;;;;;;;;5166740;27;20230;-61
2022/07/17 10:53:17;;;;;;;0.90;0.90;;;;;;;;;;5166767;27;20193;-61
2022/07/17 10:55:44;;;;;;;1.63;1.52;;;;;;;;;;5161490;27;20520;-64
2022/07/17 10:58:21;;;;;;;1.60;1.50;;;;;;;;;;5152791;27;20206;-63
2022/07/17 11:01:01;;;;;;;1.55;1.00;;;;;;;;;;5154754;27;20258;-63
2022/07/17 11:03:29;;;;;;;1.02;1.00;;;;;;;;;;5153465;27;20206;-63
2022/07/17 11:05:55;;;;;;;1.50;1.30;;;;;;;;;;5144002;27;20267;-62
2022/07/17 11:08:21;;;;;;;2.50;1.30;;;;;;;;;;5157319;27;20230;-63
2022/07/17 11:10:48;;;;;;;4.18;1.10;;;;;;;;;;5142868;27;20239;-62
2022/07/17 11:13:15;;;;;;;2.15;0.93;;;;;;;;;;5142451;27;20201;-65
2022/07/17 11:15:42;;;;;;;1.05;1.05;;;;;;;;;;5152286;27;20250;-63
2022/07/17 11:18:13;;;;;;;1.00;1.00;;;;;;;;;;5163047;27;20202;-63
2022/07/17 11:20:48;;;;;;;1.00;1.00;;;;;;;;;;5163606;27;20201;-63
2022/07/17 11:23:14;;;;;;;1.10;0.85;;;;;;;;;;5163457;27;20281;-64
2022/07/17 11:25:51;;;;;;;2.50;1.17;;;;;;;;;;5161781;27;20246;-62
2022/07/17 11:28:27;;;;;;;0.98;0.85;;;;;;;;;;5155542;27;20277;-62
2022/07/17 11:30:53;;;;;;;2.70;1.10;;;;;;;;;;5162288;27;20242;-62
2022/07/17 11:33:19;;;;;;;0.98;0.98;;;;;;;;;;5162735;27;20238;-62
2022/07/17 11:35:47;;;;;;;1.10;1.10;;;;;;;;;;5162823;27;20217;-62
2022/07/17 11:38:14;;;;;;;2.30;0.90;;;;;;;;;;5154080;27;20197;-62
2022/07/17 11:40:45;;;;;;;1.10;1.10;;;;;;;;;;5162583;27;20272;-63
2022/07/17 11:43:11;;;;;;;1.48;0.80;;;;;;;;;;5162700;27;20209;-62
2022/07/17 11:45:39;;;;;;;1.27;1.17;;;;;;;;;;5163055;27;20205;-61
2022/07/17 11:48:06;;;;;;;1.63;1.40;;;;;;;;;;5162284;27;20232;-61
2022/07/17 11:50:32;;;;;;;1.70;1.25;;;;;;;;;;5162773;27;20205;-61
2022/07/17 11:53:03;;;;;;;4.13;1.50;;;;;;;;;;5146258;27;20255;-62
2022/07/17 11:55:35;;;;;;;1.20;1.20;;;;;;;;;;5141865;27;20202;-62
2022/07/17 11:58:01;;;;;;;3.20;0.95;;;;;;;;;;5141668;27;20463;-61
2022/07/17 12:00:28;;;;;;;2.50;1.30;;;;;;;;;;5141840;27;20205;-62
2022/07/17 12:02:59;;;;;;;1.85;0.90;;;;;;;;;;5141631;27;20202;-62
2022/07/17 12:05:26;;;;;;;1.23;1.23;;;;;;;;;;5141626;27;20222;-61
2022/07/17 12:07:52;;;;;;;1.27;1.27;;;;;;;;;;5140898;27;20230;-61
2022/07/17 12:10:21;;;;;;;1.20;1.10;;;;;;;;;;5148090;27;20250;-62
2022/07/17 12:12:56;;;;;;;1.45;1.30;;;;;;;;;;5153544;27;20238;-62
2022/07/17 12:15:34;;;;;;;1.67;1.10;;;;;;;;;;5157860;27;20280;-62
2022/07/17 12:18:00;;;;;;;1.30;1.30;;;;;;;;;;5157492;27;20205;-62
2022/07/17 12:20:26;;;;;;;1.10;1.10;;;;;;;;;;5151959;27;20393;-62
2022/07/17 12:22:53;;;;;;;1.08;1.08;;;;;;;;;;5159766;27;20281;-61
2022/07/17 12:25:24;;;;;;;1.25;1.13;;;;;;;;;;5154383;27;20201;-61
2022/07/17 12:27:50;;;;;;;3.70;1.20;;;;;;;;;;5141268;27;20222;-62
2022/07/17 12:30:16;;;;;;;1.60;1.30;;;;;;;;;;5140955;27;20210;-61
2022/07/17 12:32:43;;;;;;;1.20;1.08;;;;;;;;;;5141623;27;20498;-62
2022/07/17 12:35:09;;;;;;;0.90;0.90;;;;;;;;;;5140823;27;20427;-62
2022/07/17 12:37:36;;;;;;;0.95;0.95;;;;;;;;;;5142167;27;20197;-61
2022/07/17 12:40:02;;;;;;;1.27;1.02;;;;;;;;;;5161636;27;20431;-61
2022/07/17 12:42:30;;;;;;;1.30;1.02;;;;;;;;;;5162155;27;20253;-61
2022/07/17 12:44:56;;;;;;;1.42;1.00;;;;;;;;;;5161564;27;20201;-62
2022/07/17 12:47:22;;;;;;;0.90;0.90;;;;;;;;;;5161131;27;20238;-62
2022/07/17 12:49:49;;;;;;;1.10;1.10;;;;;;;;;;5161518;27;20266;-61
2022/07/17 12:52:15;;;;;;;2.03;0.93;;;;;;;;;;5161533;27;20201;-71
2022/07/17 12:54:41;;;;;;;1.13;1.00;;;;;;;;;;5161595;27;20236;-70
2022/07/17 12:57:08;;;;;;;1.85;1.08;;;;;;;;;;5161200;27;20265;-71
2022/07/17 12:59:35;;;;;;;1.88;0.93;;;;;;;;;;5161505;27;20234;-71
2022/07/17 13:02:01;;;;;;;3.42;1.33;;;;;;;;;;5161233;27;20234;-70
2022/07/17 13:04:28;;;;;;;1.17;1.17;;;;;;;;;;5161454;27;20504;-70
2022/07/17 13:06:54;;;;;;;1.48;1.00;;;;;;;;;;5161160;27;20395;-70
2022/07/17 13:09:20;;;;;;;1.08;1.08;;;;;;;;;;5161750;27;20589;-70
2022/07/17 13:11:47;;;;;;;1.10;1.10;;;;;;;;;;5161414;27;20205;-70
2022/07/17 13:14:13;;;;;;;1.20;1.10;;;;;;;;;;5161309;27;20428;-70
2022/07/17 13:16:41;;;;;;;1.67;1.15;;;;;;;;;;5161213;27;20204;-70
2022/07/17 13:19:08;;;;;;;1.10;0.98;;;;;;;;;;5161286;27;20422;-70
2022/07/17 13:21:34;;;;;;;2.13;1.30;;;;;;;;;;5161438;27;20211;-70
2022/07/17 13:24:00;;;;;;;4.22;1.10;;;;;;;;;;5161433;27;20513;-70
2022/07/17 13:26:26;;;;;;;3.42;0.90;;;;;;;;;;5161078;27;20564;-70
2022/07/17 13:28:53;;;;;;;2.88;1.00;;;;;;;;;;5160996;27;20225;-70
2022/07/17 13:31:19;;;;;;;4.32;0.90;;;;;;;;;;5161786;27;20238;-70
2022/07/17 13:33:47;;;;;;;0.80;0.80;;;;;;;;;;5165766;27;20556;-70
2022/07/17 13:36:13;;;;;;;1.67;1.08;;;;;;;;;;5165300;27;20553;-70
2022/07/17 13:38:39;;;;;;;1.10;1.02;;;;;;;;;;5165536;27;20508;-70
2022/07/17 13:41:05;;;;;;;1.10;1.10;;;;;;;;;;5165496;27;20201;-69
2022/07/17 13:43:32;;;;;;;1.20;1.20;;;;;;;;;;5154235;27;20197;-70
2022/07/17 13:45:58;;;;;;;1.10;1.10;;;;;;;;;;5144242;27;20238;-69
2022/07/17 13:48:24;;;;;;;1.75;1.00;;;;;;;;;;5144454;27;20225;-69
2022/07/17 13:50:52;;;;;;;1.00;1.00;;;;;;;;;;5144481;27;20462;-69
2022/07/17 13:53:18;;;;;;;1.55;0.90;;;;;;;;;;5144286;27;20247;-69
2022/07/17 13:55:44;;;;;;;1.05;0.93;;;;;;;;;;5144169;27;20208;-69
2022/07/17 13:58:11;;;;;;;1.83;0.93;;;;;;;;;;5143712;27;20226;-69
2022/07/17 14:00:37;;;;;;;4.68;0.98;;;;;;;;;;5144511;27;20210;-69
2022/07/17 14:03:04;;;;;;;1.20;1.10;;;;;;;;;;5143871;27;20205;-69
2022/07/17 14:05:30;;;;;;;2.60;1.10;;;;;;;;;;5143886;27;20222;-69
2022/07/17 14:07:58;;;;;;;0.90;0.90;;;;;;;;;;5143452;27;20270;-69
2022/07/17 14:10:24;;;;;;;0.98;0.98;;;;;;;;;;5143903;27;20431;-69
2022/07/17 14:12:52;;;;;;;2.10;1.08;;;;;;;;;;5143624;27;20233;-69
2022/07/17 14:15:18;;;;;;;1.02;1.02;;;;;;;;;;5154825;27;20226;-69
2022/07/17 14:17:44;;;;;;;1.50;1.40;;;;;;;;;;5163862;27;20238;-69
2022/07/17 14:20:11;;;;;;;1.58;1.08;;;;;;;;;;5163939;27;20201;-69
2022/07/17 14:22:37;;;;;;;3.03;1.00;;;;;;;;;;5163809;27;20202;-69
2022/07/17 14:25:05;;;;;;;1.60;0.88;;;;;;;;;;5163836;27;20336;-69
2022/07/17 14:27:32;;;;;;;2.15;1.00;;;;;;;;;;5163412;27;20201;-70
2022/07/17 14:29:58;;;;;;;1.25;1.00;;;;;;;;;;5163565;27;20274;-68
2022/07/17 14:32:24;;;;;;;1.15;1.05;;;;;;;;;;5163625;27;20205;-68
2022/07/17 14:34:50;;;;;;;1.00;1.00;;;;;;;;;;5163537;27;20246;-68
2022/07/17 14:37:17;;;;;;;1.65;0.80;;;;;;;;;;5163268;27;20201;-68
2022/07/17 14:39:43;;;;;;;1.17;1.10;;;;;;;;;;5153990;27;20198;-68
2022/07/17 14:42:11;;;;;;;1.15;1.13;;;;;;;;;;5142678;27;20202;-68
2022/07/17 14:44:37;;;;;;;1.10;1.10;;;;;;;;;;5141868;27;20222;-68